Time;durP1;ratioP1;P1;durP2;ratioP2;P2;SDS_P1;SDS_P2;PMS_P1;PMS_P2;Temp;Humidity;BMP_temperature;BMP_pressure;BME280_temperature;BME280_humidity;BME280_pressure;Samples;Min_cycle;Max_cycle;Signal;HPM_P1;HPM_P2
2023/11/07 00:01:27;;;;;;;4.63;2.00;;;7.40;99.90;;;;;;5036631;28;20064;-45
2023/11/07 00:03:54;;;;;;;2.67;1.48;;;7.30;99.90;;;;;;5038476;28;20157;-42
2023/11/07 00:06:22;;;;;;;4.20;1.50;;;7.30;99.90;;;;;;5036076;28;20064;-42
2023/11/07 00:08:50;;;;;;;2.42;1.40;;;7.30;99.90;;;;;;5032450;28;20060;-42
2023/11/07 00:11:19;;;;;;;2.25;1.40;;;7.30;99.90;;;;;;5033129;28;20050;-40
2023/11/07 00:13:50;;;;;;;3.03;1.60;;;7.30;99.90;;;;;;5032181;28;20489;-41
2023/11/07 00:16:17;;;;;;;3.38;1.70;;;7.20;99.90;;;;;;5036372;28;20178;-42
2023/11/07 00:18:45;;;;;;;3.33;1.63;;;7.10;99.90;;;;;;5030969;28;20041;-43
2023/11/07 00:21:13;;;;;;;5.30;1.73;;;7.10;99.90;;;;;;5034960;28;20057;-43
2023/11/07 00:23:40;;;;;;;4.18;1.65;;;7.10;99.90;;;;;;5031499;28;20056;-41
2023/11/07 00:26:07;;;;;;;4.38;1.80;;;7.10;99.90;;;;;;5036362;28;20049;-41
2023/11/07 00:28:38;;;;;;;5.28;1.70;;;7.00;99.90;;;;;;5036109;28;20057;-40
2023/11/07 00:31:06;;;;;;;4.15;2.05;;;7.00;99.90;;;;;;5035488;28;20486;-43
2023/11/07 00:33:33;;;;;;;4.18;2.15;;;7.10;99.90;;;;;;5037470;28;20119;-39
2023/11/07 00:36:01;;;;;;;4.85;2.05;;;7.10;99.90;;;;;;5040588;28;20065;-42
2023/11/07 00:38:28;;;;;;;3.70;1.85;;;7.10;99.90;;;;;;5041680;28;20057;-43
2023/11/07 00:40:56;;;;;;;5.22;1.95;;;7.10;99.90;;;;;;5041019;28;20534;-41
2023/11/07 00:43:23;;;;;;;4.82;1.80;;;7.10;99.90;;;;;;5035801;28;20127;-38
2023/11/07 00:45:50;;;;;;;3.28;1.60;;;7.00;99.90;;;;;;5031492;28;20063;-40
2023/11/07 00:48:17;;;;;;;4.05;2.00;;;7.00;99.90;;;;;;5032066;28;20053;-38
2023/11/07 00:50:44;;;;;;;3.70;1.60;;;7.00;99.90;;;;;;5030534;28;20053;-40
2023/11/07 00:53:12;;;;;;;4.07;1.60;;;6.90;99.90;;;;;;5029579;28;20431;-41
2023/11/07 00:55:39;;;;;;;4.85;1.80;;;6.90;99.90;;;;;;5033528;28;20068;-38
2023/11/07 00:58:06;;;;;;;4.18;2.00;;;6.90;99.90;;;;;;5032006;28;20059;-38
2023/11/07 01:00:34;;;;;;;4.60;2.30;;;7.00;99.90;;;;;;5033831;28;20112;-42
2023/11/07 01:03:01;;;;;;;4.75;1.90;;;7.00;99.90;;;;;;5038374;28;20119;-43
2023/11/07 01:05:29;;;;;;;3.20;1.70;;;7.00;99.90;;;;;;5041032;28;20149;-42
2023/11/07 01:07:56;;;;;;;3.88;1.98;;;7.00;99.90;;;;;;5043423;28;20080;-42
2023/11/07 01:10:23;;;;;;;6.10;1.60;;;7.00;99.90;;;;;;5041824;28;20051;-39
2023/11/07 01:12:52;;;;;;;3.92;1.70;;;7.00;99.90;;;;;;5031852;28;20065;-39
2023/11/07 01:15:20;;;;;;;4.28;2.05;;;7.00;99.90;;;;;;5032053;28;20128;-38
2023/11/07 01:17:47;;;;;;;4.72;1.80;;;6.90;99.90;;;;;;5032144;28;20072;-41
2023/11/07 01:20:14;;;;;;;3.55;1.60;;;6.90;99.90;;;;;;5032052;28;20049;-40
2023/11/07 01:22:41;;;;;;;2.90;1.60;;;6.90;99.90;;;;;;5031724;28;20041;-44
2023/11/07 01:25:09;;;;;;;3.50;1.80;;;6.90;99.90;;;;;;5029902;28;20076;-42
2023/11/07 01:27:36;;;;;;;4.90;1.90;;;7.00;99.90;;;;;;5030184;28;20076;-42
2023/11/07 01:30:07;;;;;;;6.13;2.10;;;7.00;99.90;;;;;;5030897;28;20076;-40
2023/11/07 01:32:36;;;;;;;5.22;1.77;;;7.00;99.90;;;;;;5030056;28;20073;-46
2023/11/07 01:35:04;;;;;;;5.50;2.22;;;7.00;99.90;;;;;;5030466;28;20045;-42
2023/11/07 01:37:31;;;;;;;7.47;2.30;;;6.90;99.90;;;;;;5029884;28;20755;-40
2023/11/07 01:39:59;;;;;;;4.07;2.03;;;6.90;99.90;;;;;;5029946;28;20045;-40
2023/11/07 01:42:26;;;;;;;6.60;2.10;;;6.90;99.90;;;;;;5028962;28;20073;-40
2023/11/07 01:44:53;;;;;;;4.40;2.22;;;6.90;99.90;;;;;;5027165;28;20045;-41
2023/11/07 01:47:25;;;;;;;3.58;2.03;;;6.80;99.90;;;;;;5029348;28;20042;-37
2023/11/07 01:49:53;;;;;;;5.78;2.13;;;6.90;99.90;;;;;;5029734;28;20060;-41
2023/11/07 01:52:20;;;;;;;3.67;2.00;;;6.80;99.90;;;;;;5029759;28;20061;-41
2023/11/07 01:54:52;;;;;;;5.47;2.28;;;6.80;99.90;;;;;;5029856;28;20060;-41
2023/11/07 01:57:20;;;;;;;3.35;1.98;;;6.80;99.90;;;;;;5037120;28;20046;-41
2023/11/07 01:59:48;;;;;;;3.88;2.00;;;6.80;99.90;;;;;;5038202;28;20053;-42
2023/11/07 02:02:18;;;;;;;3.38;1.77;;;6.70;99.90;;;;;;5032278;28;20077;-41
2023/11/07 02:04:46;;;;;;;3.88;2.00;;;6.70;99.90;;;;;;5028962;28;20050;-41
2023/11/07 02:07:14;;;;;;;4.97;2.03;;;6.70;99.90;;;;;;5029513;28;20053;-41
2023/11/07 02:09:42;;;;;;;3.28;2.17;;;6.70;99.90;;;;;;5028187;28;20064;-39
2023/11/07 02:12:10;;;;;;;3.78;2.20;;;6.70;99.90;;;;;;5032866;28;20046;-41
2023/11/07 02:14:39;;;;;;;5.40;2.05;;;6.70;99.90;;;;;;5035489;28;20530;-39
2023/11/07 02:17:07;;;;;;;3.72;1.95;;;6.70;99.90;;;;;;5028898;28;20065;-41
2023/11/07 02:19:34;;;;;;;6.00;2.35;;;6.60;99.90;;;;;;5026765;28;20169;-40
2023/11/07 02:22:03;;;;;;;5.38;2.10;;;6.60;99.90;;;;;;5029714;28;20075;-39
2023/11/07 02:24:30;;;;;;;4.55;2.30;;;6.60;99.90;;;;;;5029653;28;20482;-39
2023/11/07 02:26:58;;;;;;;3.90;2.03;;;6.60;99.90;;;;;;5030468;28;20049;-38
2023/11/07 02:29:25;;;;;;;3.35;1.83;;;6.60;99.90;;;;;;5030567;28;20072;-44
2023/11/07 02:31:52;;;;;;;3.80;2.05;;;6.50;99.90;;;;;;5027449;28;20045;-42
2023/11/07 02:34:19;;;;;;;4.78;2.35;;;6.60;99.90;;;;;;5028195;28;20033;-42
2023/11/07 02:36:46;;;;;;;3.20;2.10;;;6.60;99.90;;;;;;5026131;28;20162;-41
2023/11/07 02:39:15;;;;;;;3.92;2.00;;;6.60;99.90;;;;;;5027315;28;20192;-37
2023/11/07 02:41:44;;;;;;;4.25;1.90;;;6.60;99.90;;;;;;5022525;28;20053;-39
2023/11/07 02:44:11;;;;;;;3.50;2.00;;;6.60;99.90;;;;;;5027088;28;20053;-40
2023/11/07 02:46:38;;;;;;;5.80;1.98;;;6.70;99.90;;;;;;5027696;28;20064;-39
2023/11/07 02:49:06;;;;;;;3.65;2.10;;;6.70;99.90;;;;;;5031068;28;20049;-43
2023/11/07 02:51:34;;;;;;;3.53;1.90;;;6.60;99.90;;;;;;5036753;28;20099;-41
2023/11/07 02:54:01;;;;;;;5.18;1.98;;;6.60;99.90;;;;;;5036018;28;20053;-41
2023/11/07 02:56:29;;;;;;;4.82;1.75;;;6.60;99.90;;;;;;5028986;28;20442;-38
2023/11/07 02:58:58;;;;;;;7.10;2.00;;;6.60;99.90;;;;;;5034043;28;20042;-42
2023/11/07 03:01:26;;;;;;;3.47;1.90;;;6.60;99.90;;;;;;5029907;28;20498;-43
2023/11/07 03:03:54;;;;;;;3.90;1.95;;;6.60;99.90;;;;;;5030851;28;20156;-38
2023/11/07 03:06:22;;;;;;;4.50;2.17;;;6.50;99.90;;;;;;5030312;28;20180;-40
2023/11/07 03:08:49;;;;;;;3.92;2.15;;;6.50;99.90;;;;;;5033080;28;20037;-41
2023/11/07 03:11:17;;;;;;;3.78;2.08;;;6.50;99.90;;;;;;5034572;28;20052;-38
2023/11/07 03:13:45;;;;;;;4.60;2.20;;;6.50;99.90;;;;;;5032600;28;20046;-41
2023/11/07 03:16:12;;;;;;;3.63;1.90;;;6.50;99.90;;;;;;5031588;28;20124;-41
2023/11/07 03:18:39;;;;;;;4.78;2.20;;;6.50;99.90;;;;;;5031481;28;20101;-42
2023/11/07 03:21:10;;;;;;;4.95;2.15;;;6.40;99.90;;;;;;5030558;28;20075;-43
2023/11/07 03:23:37;;;;;;;3.72;2.25;;;6.40;99.90;;;;;;5031553;28;20054;-40
2023/11/07 03:26:04;;;;;;;3.40;1.80;;;6.30;99.90;;;;;;5033646;28;20446;-42
2023/11/07 03:28:31;;;;;;;4.07;2.28;;;6.30;99.90;;;;;;5035806;28;20053;-38
2023/11/07 03:30:58;;;;;;;4.00;1.98;;;6.30;99.90;;;;;;5039894;28;20049;-41
2023/11/07 03:33:26;;;;;;;4.45;2.25;;;6.40;99.90;;;;;;5035374;28;20054;-42
2023/11/07 03:35:53;;;;;;;3.83;1.80;;;6.40;99.90;;;;;;5035907;28;20053;-41
2023/11/07 03:38:20;;;;;;;3.72;1.85;;;6.40;99.90;;;;;;5032777;28;20038;-40
2023/11/07 03:40:47;;;;;;;4.78;2.15;;;6.50;99.90;;;;;;5036048;28;20045;-40
2023/11/07 03:43:16;;;;;;;3.22;1.77;;;6.40;99.90;;;;;;5034404;28;20049;-41
2023/11/07 03:45:43;;;;;;;4.45;2.00;;;6.40;99.90;;;;;;5029977;28;20422;-42
2023/11/07 03:48:10;;;;;;;2.80;1.65;;;6.40;99.90;;;;;;5031152;28;20090;-40
2023/11/07 03:50:37;;;;;;;6.60;1.90;;;6.40;99.90;;;;;;5032594;28;20053;-40
2023/11/07 03:53:05;;;;;;;3.15;1.85;;;6.40;99.90;;;;;;5035094;28;20053;-41
2023/11/07 03:55:33;;;;;;;3.60;1.98;;;6.30;99.90;;;;;;5043004;28;20046;-41
2023/11/07 03:58:00;;;;;;;3.85;2.22;;;6.30;99.90;;;;;;5032955;28;20446;-40
2023/11/07 04:00:27;;;;;;;3.50;2.10;;;6.30;99.90;;;;;;5031930;28;20088;-42
2023/11/07 04:02:54;;;;;;;4.47;2.35;;;6.30;99.90;;;;;;5029281;28;20037;-41
2023/11/07 04:05:22;;;;;;;3.17;1.83;;;6.30;99.90;;;;;;5028285;28;20057;-40
2023/11/07 04:07:50;;;;;;;4.40;2.20;;;6.30;99.90;;;;;;5029345;28;20518;-42
2023/11/07 04:10:17;;;;;;;4.15;2.25;;;6.30;99.90;;;;;;5030630;28;20125;-41
2023/11/07 04:12:44;;;;;;;3.80;2.00;;;6.30;99.90;;;;;;5030103;28;20053;-44
2023/11/07 04:15:12;;;;;;;3.58;1.90;;;6.30;99.90;;;;;;5031929;28;20068;-41
2023/11/07 04:17:40;;;;;;;4.25;2.00;;;6.30;99.90;;;;;;5037223;28;20041;-40
2023/11/07 04:20:11;;;;;;;4.63;2.25;;;6.30;99.90;;;;;;5043372;28;20042;-39
2023/11/07 04:22:39;;;;;;;5.10;2.03;;;6.30;99.90;;;;;;5040527;28;20050;-42
2023/11/07 04:25:06;;;;;;;4.65;2.30;;;6.20;99.90;;;;;;5040649;28;20057;-42
2023/11/07 04:27:34;;;;;;;8.88;2.25;;;6.30;99.90;;;;;;5038310;28;20109;-40
2023/11/07 04:30:05;;;;;;;5.93;2.60;;;6.20;99.90;;;;;;5039777;28;20053;-41
2023/11/07 04:32:35;;;;;;;5.93;2.92;;;6.20;99.90;;;;;;5039177;28;20050;-41
2023/11/07 04:35:05;;;;;;;4.68;2.22;;;6.20;99.90;;;;;;5041535;28;20474;-40
2023/11/07 04:37:33;;;;;;;3.58;1.90;;;6.10;99.90;;;;;;5037754;28;20057;-42
2023/11/07 04:40:02;;;;;;;3.45;2.20;;;6.10;99.90;;;;;;5040378;28;20128;-43
2023/11/07 04:42:29;;;;;;;4.90;1.95;;;6.10;99.90;;;;;;5040356;28;20083;-42
2023/11/07 04:44:56;;;;;;;4.90;1.90;;;6.10;99.90;;;;;;5030481;28;20058;-41
2023/11/07 04:47:23;;;;;;;3.60;2.00;;;6.10;99.90;;;;;;5030457;28;20049;-45
2023/11/07 04:49:51;;;;;;;5.32;2.00;;;6.00;99.90;;;;;;5030886;28;20072;-41
2023/11/07 04:52:18;;;;;;;6.35;2.15;;;6.00;99.90;;;;;;5029255;28;20049;-41
2023/11/07 04:54:44;;;;;;;3.10;1.90;;;6.10;99.90;;;;;;5030892;28;20446;-42
2023/11/07 04:57:11;;;;;;;4.45;1.77;;;6.10;99.90;;;;;;5032391;28;20041;-41
2023/11/07 04:59:39;;;;;;;3.33;1.77;;;6.10;99.90;;;;;;5029554;28;20045;-40
2023/11/07 05:02:06;;;;;;;3.25;1.83;;;6.20;99.90;;;;;;5029812;28;20139;-42
2023/11/07 05:04:36;;;;;;;4.80;2.00;;;6.20;99.90;;;;;;5030840;28;20049;-40
2023/11/07 05:07:03;;;;;;;3.30;1.98;;;6.20;99.90;;;;;;5031329;28;20231;-41
2023/11/07 05:09:30;;;;;;;4.97;1.83;;;6.20;99.90;;;;;;5029983;28;20450;-38
2023/11/07 05:11:59;;;;;;;4.78;1.73;;;6.20;99.90;;;;;;5038119;28;20096;-42
2023/11/07 05:14:27;;;;;;;6.00;2.30;;;6.20;99.90;;;;;;5041315;28;20095;-43
2023/11/07 05:16:54;;;;;;;10.48;2.30;;;6.20;99.90;;;;;;5040074;28;20119;-41
2023/11/07 05:19:21;;;;;;;11.75;4.55;;;6.20;99.90;;;;;;5039886;28;20410;-39
2023/11/07 05:21:49;;;;;;;6.00;2.40;;;6.20;99.90;;;;;;5031392;28;20093;-41
2023/11/07 05:24:16;;;;;;;5.60;2.53;;;6.20;99.90;;;;;;5030555;28;20145;-42
2023/11/07 05:26:43;;;;;;;4.00;1.98;;;6.20;99.90;;;;;;5039747;28;20518;-41
2023/11/07 05:29:15;;;;;;;5.15;2.42;;;6.20;99.90;;;;;;5041033;28;20057;-43
2023/11/07 05:31:42;;;;;;;9.13;2.35;;;6.20;99.90;;;;;;5033343;28;20053;-42
2023/11/07 05:34:09;;;;;;;4.40;2.05;;;6.30;99.90;;;;;;5038911;28;20060;-40
2023/11/07 05:36:36;;;;;;;6.63;3.60;;;6.20;99.90;;;;;;5034151;28;20120;-41
2023/11/07 05:39:03;;;;;;;6.55;3.17;;;6.20;99.90;;;;;;5030328;28;20041;-41
2023/11/07 05:41:31;;;;;;;7.25;2.65;;;6.20;99.90;;;;;;5024354;28;20046;-42
2023/11/07 05:43:58;;;;;;;8.02;2.45;;;6.10;99.90;;;;;;5024005;28;20045;-41
2023/11/07 05:46:25;;;;;;;4.88;2.20;;;6.10;99.90;;;;;;5031352;28;20122;-41
2023/11/07 05:48:52;;;;;;;4.85;2.80;;;6.10;99.90;;;;;;5030181;28;20045;-40
2023/11/07 05:51:23;;;;;;;4.13;2.05;;;6.10;99.90;;;;;;5030402;28;20509;-41
2023/11/07 05:53:50;;;;;;;5.10;2.10;;;6.10;99.90;;;;;;5033222;28;20054;-41
2023/11/07 05:56:17;;;;;;;6.38;2.30;;;6.10;99.90;;;;;;5030604;28;20037;-39
2023/11/07 05:58:46;;;;;;;4.15;2.08;;;6.00;99.90;;;;;;5033148;28;20109;-38
2023/11/07 06:01:15;;;;;;;4.35;2.28;;;6.10;99.90;;;;;;5033109;28;20049;-40
2023/11/07 06:03:42;;;;;;;4.28;2.10;;;6.00;99.90;;;;;;5028690;28;20501;-38
2023/11/07 06:06:09;;;;;;;5.75;2.90;;;6.00;99.90;;;;;;5028926;28;20049;-42
2023/11/07 06:08:37;;;;;;;7.63;2.58;;;6.00;99.90;;;;;;5028800;28;20041;-41
2023/11/07 06:11:04;;;;;;;5.10;2.42;;;6.00;99.90;;;;;;5027523;28;20054;-40
2023/11/07 06:13:31;;;;;;;5.95;2.50;;;6.00;99.90;;;;;;5028550;28;20140;-41
2023/11/07 06:15:58;;;;;;;7.63;2.35;;;6.10;99.90;;;;;;5029035;28;20056;-41
2023/11/07 06:18:25;;;;;;;6.60;2.03;;;6.10;99.90;;;;;;5029312;28;20052;-38
2023/11/07 06:20:52;;;;;;;5.70;2.88;;;6.10;99.90;;;;;;5029168;28;20109;-41
2023/11/07 06:23:20;;;;;;;4.32;2.40;;;6.10;99.90;;;;;;5029444;28;20056;-37
2023/11/07 06:25:48;;;;;;;8.95;2.50;;;6.20;99.90;;;;;;5030281;28;20045;-39
2023/11/07 06:28:15;;;;;;;6.28;2.83;;;6.20;99.90;;;;;;5030880;28;20049;-39
2023/11/07 06:30:43;;;;;;;5.65;2.20;;;6.20;99.90;;;;;;5028774;28;20084;-39
2023/11/07 06:33:11;;;;;;;6.95;2.70;;;6.20;99.90;;;;;;5027331;28;20078;-44
2023/11/07 06:35:38;;;;;;;4.38;2.33;;;6.20;99.90;;;;;;5026887;28;20556;-41
2023/11/07 06:38:05;;;;;;;5.10;2.83;;;6.20;99.90;;;;;;5029720;28;20497;-39
2023/11/07 06:40:34;;;;;;;8.40;3.13;;;6.20;99.90;;;;;;5033890;28;20048;-38
2023/11/07 06:43:03;;;;;;;6.55;2.85;;;6.30;99.90;;;;;;5034608;28;20061;-40
2023/11/07 06:45:30;;;;;;;6.47;2.40;;;6.30;99.90;;;;;;5037530;28;20465;-41
2023/11/07 06:47:57;;;;;;;5.53;2.40;;;6.30;99.90;;;;;;5042947;28;20053;-42
2023/11/07 06:50:26;;;;;;;4.63;2.60;;;6.30;99.90;;;;;;5042356;28;20152;-40
2023/11/07 06:52:53;;;;;;;5.07;2.20;;;6.30;99.90;;;;;;5036916;28;20111;-42
2023/11/07 06:55:24;;;;;;;6.57;2.53;;;6.30;99.90;;;;;;5031118;28;20325;-39
2023/11/07 06:57:53;;;;;;;9.20;2.90;;;6.40;99.90;;;;;;5031000;28;20068;-40
2023/11/07 07:00:24;;;;;;;6.65;2.60;;;6.40;99.90;;;;;;5031436;28;20061;-39
2023/11/07 07:02:55;;;;;;;9.73;3.15;;;6.60;99.90;;;;;;5029421;28;20485;-42
2023/11/07 07:05:24;;;;;;;5.95;2.85;;;6.60;99.90;;;;;;5029554;28;20049;-40
2023/11/07 07:07:51;;;;;;;5.22;2.42;;;6.60;99.90;;;;;;5030560;28;20481;-40
2023/11/07 07:10:18;;;;;;;11.13;3.90;;;6.80;99.90;;;;;;5030310;28;20199;-41
2023/11/07 07:12:46;;;;;;;8.23;3.97;;;6.80;99.90;;;;;;5026323;28;20057;-43
2023/11/07 07:15:13;;;;;;;15.27;4.82;;;6.80;99.90;;;;;;5018048;28;20052;-40
2023/11/07 07:17:40;;;;;;;5.90;2.65;;;6.80;99.90;;;;;;5026845;28;20044;-41
2023/11/07 07:20:11;;;;;;;6.25;2.70;;;6.80;99.90;;;;;;5029861;28;20507;-42
2023/11/07 07:22:44;;;;;;;6.75;3.35;;;6.80;99.90;;;;;;5029047;28;20037;-40
2023/11/07 07:25:20;;;;;;;5.50;2.92;;;6.80;99.90;;;;;;5027721;28;20045;-42
2023/11/07 07:27:48;;;;;;;6.32;3.17;;;6.90;99.90;;;;;;5028581;28;20076;-40
2023/11/07 07:30:20;;;;;;;5.47;2.88;;;7.00;99.90;;;;;;5029216;28;20064;-42
2023/11/07 07:32:53;;;;;;;5.97;2.80;;;7.00;99.90;;;;;;5027838;28;20049;-40
2023/11/07 07:35:21;;;;;;;7.30;2.90;;;7.10;99.90;;;;;;5029824;28;20041;-40
2023/11/07 07:37:52;;;;;;;5.63;2.78;;;7.20;99.90;;;;;;5028598;28;20132;-40
2023/11/07 07:40:25;;;;;;;5.45;3.22;;;7.20;99.90;;;;;;5029512;28;20053;-43
2023/11/07 07:42:58;;;;;;;6.88;2.30;;;7.20;99.90;;;;;;5024916;28;20126;-41
2023/11/07 07:45:26;;;;;;;8.95;4.85;;;7.30;99.90;;;;;;5032338;28;20483;-41
2023/11/07 07:47:53;;;;;;;4.75;2.65;;;7.30;99.90;;;;;;5041694;28;20065;-40
2023/11/07 07:50:21;;;;;;;8.02;2.20;;;7.40;99.90;;;;;;5037990;28;20087;-42
2023/11/07 07:52:54;;;;;;;6.05;2.45;;;7.50;99.90;;;;;;5030953;28;20056;-42
2023/11/07 07:55:21;;;;;;;4.55;2.45;;;7.50;99.90;;;;;;5030184;28;20395;-40
2023/11/07 07:58:01;;;;;;;7.15;2.60;;;7.60;99.90;;;;;;5030536;28;20524;-42
2023/11/07 08:00:32;;;;;;;4.63;2.60;;;7.70;99.90;;;;;;5030653;28;20084;-40
2023/11/07 08:03:06;;;;;;;9.32;2.47;;;7.80;99.90;;;;;;5030459;28;20053;-41
2023/11/07 08:05:38;;;;;;;4.30;2.28;;;7.80;99.90;;;;;;5029850;28;20066;-42
2023/11/07 08:08:08;;;;;;;3.30;1.95;;;8.00;99.90;;;;;;5032767;28;20056;-42
2023/11/07 08:10:36;;;;;;;4.45;2.70;;;8.00;99.90;;;;;;5035643;28;20049;-39
2023/11/07 08:13:06;;;;;;;8.10;2.47;;;8.20;99.90;;;;;;5030163;28;20136;-43
2023/11/07 08:15:35;;;;;;;6.72;2.28;;;8.30;99.90;;;;;;5032084;28;20041;-41
2023/11/07 08:18:06;;;;;;;4.32;2.42;;;8.40;99.90;;;;;;5032256;28;20052;-42
2023/11/07 08:20:35;;;;;;;4.63;2.70;;;8.50;99.90;;;;;;5031732;28;20042;-41
2023/11/07 08:23:04;;;;;;;4.63;2.10;;;8.60;99.90;;;;;;5032277;28;20045;-39
2023/11/07 08:25:32;;;;;;;3.15;1.95;;;8.80;99.90;;;;;;5031821;28;20053;-39
2023/11/07 08:27:59;;;;;;;14.98;8.02;;;9.00;99.90;;;;;;5031874;28;20053;-42
2023/11/07 08:30:26;;;;;;;5.47;2.72;;;9.20;99.90;;;;;;5028915;28;20038;-41
2023/11/07 08:32:53;;;;;;;5.07;2.63;;;9.40;99.90;;;;;;5026143;28;20046;-39
2023/11/07 08:35:21;;;;;;;5.43;2.50;;;9.40;99.90;;;;;;5034251;28;20065;-37
2023/11/07 08:37:52;;;;;;;4.82;2.45;;;9.60;99.90;;;;;;5029864;28;20695;-41
2023/11/07 08:40:22;;;;;;;4.55;2.40;;;9.70;99.90;;;;;;5031024;28;20083;-41
2023/11/07 08:42:50;;;;;;;4.03;2.35;;;9.50;99.90;;;;;;5028037;28;20041;-38
2023/11/07 08:45:20;;;;;;;4.18;2.40;;;9.60;99.90;;;;;;5029143;28;20053;-40
2023/11/07 08:47:54;;;;;;;5.85;2.15;;;9.60;99.90;;;;;;5029735;28;20560;-42
2023/11/07 08:50:21;;;;;;;6.15;2.65;;;9.80;99.90;;;;;;5027271;28;20053;-40
2023/11/07 08:52:50;;;;;;;4.68;2.50;;;9.80;99.90;;;;;;5031273;28;20054;-40
2023/11/07 08:55:18;;;;;;;6.15;2.10;;;9.80;99.90;;;;;;5032075;28;20128;-44
2023/11/07 08:57:51;;;;;;;9.00;5.40;;;9.80;99.90;;;;;;5034678;28;20042;-41
2023/11/07 09:00:21;;;;;;;4.63;2.80;;;9.80;99.90;;;;;;5039311;28;20049;-44
2023/11/07 09:02:51;;;;;;;4.60;2.83;;;9.80;99.90;;;;;;5030869;28;20055;-39
2023/11/07 09:05:18;;;;;;;3.55;2.20;;;10.00;99.90;;;;;;5030079;28;20049;-39
2023/11/07 09:07:46;;;;;;;4.00;1.88;;;10.20;99.90;;;;;;5021992;28;20053;-41
2023/11/07 09:10:14;;;;;;;5.25;2.10;;;10.30;99.90;;;;;;5029720;28;20104;-42
2023/11/07 09:12:41;;;;;;;5.88;2.17;;;10.40;99.90;;;;;;5028251;28;20099;-44
2023/11/07 09:15:12;;;;;;;4.45;1.98;;;10.50;99.90;;;;;;5030561;28;20077;-44
2023/11/07 09:17:41;;;;;;;3.83;2.00;;;10.60;99.90;;;;;;5030539;28;20053;-41
2023/11/07 09:20:11;;;;;;;3.13;1.95;;;10.60;99.90;;;;;;5031499;28;20057;-40
2023/11/07 09:22:43;;;;;;;4.93;1.80;;;10.60;99.90;;;;;;5031039;28;20053;-40
2023/11/07 09:25:11;;;;;;;4.38;2.00;;;10.80;99.90;;;;;;5030784;28;20124;-41
2023/11/07 09:27:39;;;;;;;3.00;1.80;;;10.90;99.90;;;;;;5030693;28;20064;-41
2023/11/07 09:30:11;;;;;;;4.60;2.10;;;10.90;99.90;;;;;;5029834;28;20119;-42
2023/11/07 09:32:41;;;;;;;2.65;1.90;;;11.00;99.90;;;;;;5030408;28;20049;-42
2023/11/07 09:35:10;;;;;;;3.10;1.80;;;11.20;99.90;;;;;;5027700;28;20087;-41
2023/11/07 09:37:39;;;;;;;2.30;1.85;;;11.30;99.90;;;;;;5027556;28;20049;-38
2023/11/07 09:40:17;;;;;;;2.28;1.60;;;11.40;99.90;;;;;;5030929;28;20137;-40
2023/11/07 09:42:50;;;;;;;3.70;1.95;;;11.40;99.90;;;;;;5024652;28;20046;-39
2023/11/07 09:45:19;;;;;;;4.05;1.88;;;11.50;99.90;;;;;;5029611;28;20060;-39
2023/11/07 09:47:47;;;;;;;4.20;2.00;;;11.60;99.90;;;;;;5028494;28;20117;-41
2023/11/07 09:50:21;;;;;;;3.90;1.98;;;11.60;99.90;;;;;;5029666;28;20185;-42
2023/11/07 09:52:50;;;;;;;3.10;1.90;;;11.60;99.90;;;;;;5027962;28;20495;-41
2023/11/07 09:55:17;;;;;;;3.25;1.80;;;11.60;99.90;;;;;;5031238;28;20557;-38
2023/11/07 09:58:02;;;;;;;7.43;2.47;;;11.70;99.90;;;;;;5033460;28;20108;-43
2023/11/07 10:00:45;;;;;;;4.80;2.00;;;11.80;99.90;;;;;;5031105;28;20071;-39
2023/11/07 10:03:13;;;;;;;4.93;2.07;;;11.90;99.90;;;;;;5031586;28;20452;-41
2023/11/07 10:05:42;;;;;;;3.95;1.98;;;12.20;99.90;;;;;;5028803;28;20343;-39
2023/11/07 10:08:09;;;;;;;3.47;2.20;;;12.20;99.90;;;;;;5032001;28;20065;-43
2023/11/07 10:10:36;;;;;;;3.35;2.13;;;12.20;99.90;;;;;;5029922;28;20045;-41
2023/11/07 10:13:08;;;;;;;3.05;2.42;;;12.20;99.90;;;;;;5034982;28;20149;-44
2023/11/07 10:15:35;;;;;;;;;;;12.10;99.90;;;;;;5041450;28;20045;-43
2023/11/07 10:18:08;;;;;;;2.85;2.20;;;12.10;99.90;;;;;;5043074;28;19928;-40
2023/11/07 10:20:54;;;;;;;4.88;2.22;;;11.90;99.90;;;;;;5042129;28;20064;-43
2023/11/07 10:23:22;;;;;;;3.33;2.40;;;11.90;99.90;;;;;;5042361;28;20046;-42
2023/11/07 10:25:49;;;;;;;3.45;2.00;;;11.90;99.90;;;;;;5043148;28;20115;-43
2023/11/07 10:28:21;;;;;;;3.25;2.30;;;12.00;99.90;;;;;;5040347;28;20049;-44
2023/11/07 10:30:49;;;;;;;3.70;2.35;;;12.10;99.90;;;;;;5042949;28;20049;-42
2023/11/07 10:33:34;;;;;;;2.50;2.22;;;12.10;99.90;;;;;;5042372;28;20049;-43
2023/11/07 10:36:02;;;;;;;2.53;2.00;;;11.90;99.90;;;;;;5041685;28;20054;-41
2023/11/07 10:38:30;;;;;;;5.70;2.40;;;12.10;99.90;;;;;;5036335;28;20071;-40
2023/11/07 10:40:58;;;;;;;3.65;2.40;;;12.00;99.90;;;;;;5030157;28;20049;-44
2023/11/07 10:43:52;;;;;;;4.88;2.20;;;12.20;99.90;;;;;;5026750;28;20045;-45
2023/11/07 10:46:19;;;;;;;4.97;2.03;;;12.10;99.90;;;;;;5022944;28;20057;-42
2023/11/07 10:48:51;;;;;;;5.22;2.20;;;12.20;99.90;;;;;;5027148;28;20053;-43
2023/11/07 10:51:20;;;;;;;5.55;2.33;;;12.10;99.90;;;;;;5029934;28;20049;-42
2023/11/07 10:53:47;;;;;;;3.45;2.20;;;12.20;99.90;;;;;;5012089;28;20697;-39
2023/11/07 10:56:18;;;;;;;4.57;2.10;;;12.30;99.90;;;;;;5028558;28;20076;-42
2023/11/07 10:58:56;;;;;;;;;;;12.50;99.90;;;;;;5028711;28;20585;-43
2023/11/07 11:01:27;;;;;;;4.32;2.40;;;12.60;99.90;;;;;;5030370;28;19975;-41
2023/11/07 11:03:55;;;;;;;3.70;2.40;;;12.70;99.90;;;;;;5028227;28;20059;-43
2023/11/07 11:06:26;;;;;;;4.15;2.15;;;12.70;99.90;;;;;;5027865;28;20072;-43
2023/11/07 11:08:57;;;;;;;8.20;2.50;;;12.70;99.90;;;;;;5031754;28;20049;-42
2023/11/07 11:11:25;;;;;;;3.75;2.50;;;12.80;99.90;;;;;;5029177;28;20553;-39
2023/11/07 11:13:55;;;;;;;3.97;2.28;;;12.60;99.90;;;;;;5026070;28;20132;-43
2023/11/07 11:16:23;;;;;;;5.35;2.50;;;12.60;99.90;;;;;;5028662;28;20041;-40
2023/11/07 11:18:57;;;;;;;2.90;2.22;;;12.60;99.90;;;;;;5032293;28;20482;-37
2023/11/07 11:21:38;;;;;;;3.63;2.33;;;12.50;99.90;;;;;;5033519;28;20052;-40
2023/11/07 11:24:23;;;;;;;3.65;2.30;;;12.50;99.90;;;;;;5033700;28;20049;-38
2023/11/07 11:27:03;;;;;;;4.38;2.40;;;12.40;99.90;;;;;;5035713;28;20084;-37
2023/11/07 11:29:30;;;;;;;3.42;2.30;;;12.20;99.90;;;;;;5034019;28;20626;-37
2023/11/07 11:31:57;;;;;;;3.75;2.50;;;12.00;99.90;;;;;;5037450;28;20049;-38
2023/11/07 11:34:29;;;;;;;3.00;2.33;;;11.80;99.90;;;;;;5033503;28;20079;-40
2023/11/07 11:36:58;;;;;;;3.75;2.30;;;11.80;99.90;;;;;;5031394;28;20172;-40
2023/11/07 11:39:36;;;;;;;3.17;2.20;;;12.00;99.90;;;;;;5036981;28;20140;-38
2023/11/07 11:42:09;;;;;;;2.95;2.30;;;12.20;99.90;;;;;;5034314;28;20052;-40
2023/11/07 11:44:36;;;;;;;3.83;2.50;;;12.20;99.90;;;;;;5039735;28;20080;-37
2023/11/07 11:47:03;;;;;;;5.00;2.67;;;12.10;99.90;;;;;;5037748;28;20457;-35
2023/11/07 11:49:32;;;;;;;3.92;2.42;;;12.10;99.90;;;;;;5038441;28;20073;-38
2023/11/07 11:51:59;;;;;;;4.20;2.30;;;11.90;99.90;;;;;;5036505;28;20053;-37
2023/11/07 11:54:33;;;;;;;2.53;1.95;;;11.80;99.90;;;;;;5031563;28;20246;-39
2023/11/07 11:57:03;;;;;;;2.80;2.10;;;11.70;99.90;;;;;;5030858;28;20045;-40
2023/11/07 11:59:56;;;;;;;3.28;2.38;;;11.70;99.90;;;;;;5029241;28;20045;-40
2023/11/07 12:02:37;;;;;;;3.83;2.20;;;11.60;99.90;;;;;;5031819;28;20052;-40
2023/11/07 12:05:12;;;;;;;3.88;2.10;;;11.60;99.90;;;;;;5027886;28;20044;-38
2023/11/07 12:07:39;;;;;;;4.05;2.13;;;11.70;99.90;;;;;;5034080;28;20046;-42
2023/11/07 12:10:08;;;;;;;2.30;1.70;;;11.70;99.90;;;;;;5041261;28;20130;-43
2023/11/07 12:12:37;;;;;;;3.42;1.98;;;11.70;99.90;;;;;;5043680;28;20053;-42
2023/11/07 12:15:06;;;;;;;3.17;1.83;;;11.70;99.90;;;;;;5043361;28;20131;-42
2023/11/07 12:17:44;;;;;;;2.13;1.70;;;11.80;99.90;;;;;;5033117;28;20073;-41
2023/11/07 12:20:16;;;;;;;2.20;1.70;;;11.80;99.90;;;;;;5031244;28;20128;-41
2023/11/07 12:22:48;;;;;;;2.28;1.80;;;12.10;99.90;;;;;;5037642;28;20119;-41
2023/11/07 12:25:17;;;;;;;1.88;1.65;;;12.10;99.90;;;;;;5040652;28;20046;-40
2023/11/07 12:28:03;;;;;;;2.13;1.83;;;12.20;99.90;;;;;;5039508;28;20076;-41
2023/11/07 12:30:35;;;;;;;2.85;1.67;;;12.30;99.90;;;;;;5042398;28;20064;-41
2023/11/07 12:33:08;;;;;;;4.60;2.00;;;12.30;99.90;;;;;;5039026;28;20045;-39
2023/11/07 12:35:38;;;;;;;3.45;1.75;;;12.50;99.90;;;;;;5042132;28;20112;-41
2023/11/07 12:38:07;;;;;;;2.55;1.95;;;12.60;99.90;;;;;;5040817;28;20053;-41
2023/11/07 12:40:36;;;;;;;2.72;2.00;;;12.40;99.90;;;;;;5035164;28;20054;-40
2023/11/07 12:43:07;;;;;;;2.33;1.63;;;12.50;99.90;;;;;;5032945;28;20346;-40
2023/11/07 12:45:36;;;;;;;4.55;2.28;;;12.20;99.90;;;;;;5030187;28;20462;-41
2023/11/07 12:48:06;;;;;;;5.05;1.83;;;12.10;99.90;;;;;;5031295;28;20045;-41
2023/11/07 12:50:43;;;;;;;3.03;2.00;;;11.80;99.90;;;;;;5031082;28;20042;-43
2023/11/07 12:53:12;;;;;;;3.08;2.15;;;11.70;99.90;;;;;;5032687;28;20057;-41
2023/11/07 12:55:48;;;;;;;2.72;2.10;;;11.60;99.90;;;;;;5031927;28;20360;-39
2023/11/07 12:58:28;;;;;;;4.03;2.10;;;11.40;99.90;;;;;;5030634;28;20324;-41
2023/11/07 13:00:56;;;;;;;3.78;2.00;;;11.30;99.90;;;;;;5028625;28;20121;-43
2023/11/07 13:03:25;;;;;;;5.20;2.00;;;11.30;99.90;;;;;;5033966;28;20049;-43
2023/11/07 13:06:04;;;;;;;4.97;2.10;;;11.30;99.90;;;;;;4997159;28;1053500;-41